The Farmers Guide 72-hour weather forecast

Enter Postcode:

Sunny Spells

(06:00)

16.1°C

IP2 0SS

Wind Soil
Date Time Weather Temp Rain Humid Cloud Press (mph) Temp Moist
18/09 06:00 16.1°C 0.0mm 94% 55% 1010mb 7ne (56 degrees) n/a 0.2%
09:00 19.9°C 0.0mm 76% 85% 1010mb 8nee (70 degrees) n/a 0.2%
12:00 22.0°C 0.0mm 65% 83% 1010mb 8e (82 degrees) n/a 0.2%
15:00 21.8°C 0.0mm 67% 30% 1010mb 7e (82 degrees) n/a 0.2%
18:00 18.4°C 0.0mm 83% 28% 1010mb 6nee (68 degrees) n/a 0.2%
21:00 17.0°C 0.0mm 89% 40% 1011mb 5nee (61 degrees) n/a 0.2%
19/09 00:00 17.1°C 0.0mm 90% 64% 1011mb 4ne (42 degrees) n/a 0.2%
03:00 16.4°C 0.0mm 95% 26% 1011mb 5nne (29 degrees) n/a 0.2%
06:00 16.4°C 0.0mm 96% 32% 1011mb 5ne (40 degrees) n/a 0.2%
09:00 20.4°C 0.0mm 79% 59% 1012mb 4ne (53 degrees) n/a 0.2%
12:00 23.5°C 0.0mm 65% 58% 1012mb 4e (89 degrees) n/a 0.2%
15:00 23.6°C 0.0mm 64% 28% 1012mb 5see (102 degrees) n/a 0.2%
18:00 19.8°C 0.0mm 81% 46% 1012mb 4e (95 degrees) n/a 0.2%
21:00 17.8°C 0.0mm 91% 11% 1014mb 4e (97 degrees) n/a 0.2%
20/09 00:00 16.0°C 0.0mm 96% 6% 1014mb 2see (105 degrees) n/a 0.2%
03:00 14.7°C 0.0mm 97% 14% 1014mb 1nee (62 degrees) n/a 0.2%
06:00 15.0°C 0.0mm 96% 20% 1015mb 3n (10 degrees) n/a 0.2%
09:00 19.8°C 0.0mm 78% 28% 1016mb 3ne (40 degrees) n/a 0.2%
12:00 23.5°C 0.0mm 63% 19% 1016mb 3nee (68 degrees) n/a 0.2%
15:00 23.1°C 0.0mm 62% 0% 1016mb 5ne (45 degrees) n/a 0.2%
18:00 19.1°C 0.0mm 78% 30% 1016mb 8ne (42 degrees) n/a 0.2%
21:00 16.8°C 0.0mm 86% 99% 1018mb 8nne (26 degrees) n/a 0.2%
21/09 00:00 15.5°C 0.0mm 90% 94% 1018mb 8nne (14 degrees) n/a 0.2%
03:00 15.1°C 0.0mm 92% 49% 1018mb 10nne (18 degrees) n/a 0.2%
The Farmers Guide weather forecast is a free service for users of this website.
 
We now carry forecasts based on postcodes. Just enter your postcode and the weather page will display the forecast for the following 72 hours, broken down into three-hour intervals.
 
The forecast data provided for each three-hour period includes: a general graphic showing the likely weather conditions; average temperatures for the period; cloud cover; barometric pressure; wind speed and direction; humidity; and rainfall.
 
An indication of the likely soil temperature and soil moisture will also be displayed for most postcodes, although this data is not available for every area.
 
We hope you will find this service useful and would welcome any feedback from you.
 
 

Search

Read our whole magazine online FREE!

Advertisments